Time;durP1;ratioP1;P1;durP2;ratioP2;P2;SDS_P1;SDS_P2;PMS_P1;PMS_P2;Temp;Humidity;BMP_temperature;BMP_pressure;BME280_temperature;BME280_humidity;BME280_pressure;Samples;Min_cycle;Max_cycle;Signal;HPM_P1;HPM_P2
2022/08/13 00:02:18;;;;;;;1.20;1.10;;;;;;;;;;10470956;28;20043;-55
2022/08/13 00:07:19;;;;;;;3.00;1.42;;;;;;;;;;10495580;28;20045;-56
2022/08/13 00:17:50;;;;;;;4.00;1.33;;;;;;;;;;10487969;28;20017;-57
2022/08/13 00:22:54;;;;;;;1.58;1.40;;;;;;;;;;10481552;28;20039;-56
2022/08/13 00:27:57;;;;;;;2.20;1.20;;;;;;;;;;10477458;28;20048;-57
2022/08/13 00:33:12;;;;;;;1.90;1.10;;;;;;;;;;10447314;28;20021;-57
2022/08/13 00:38:17;;;;;;;1.92;1.10;;;;;;;;;;10440080;28;20442;-56
2022/08/13 00:43:18;;;;;;;1.30;1.17;;;;;;;;;;10453260;28;20088;-57
2022/08/13 00:53:40;;;;;;;2.10;1.30;;;;;;;;;;10446422;28;20041;-57
2022/08/13 00:58:42;;;;;;;1.63;1.13;;;;;;;;;;10453951;28;20384;-57
2022/08/13 01:03:43;;;;;;;0.80;0.80;;;;;;;;;;10463974;28;20047;-57
2022/08/13 01:08:44;;;;;;;1.13;0.90;;;;;;;;;;10474671;28;20526;-55
2022/08/13 01:13:46;;;;;;;1.98;1.00;;;;;;;;;;10439251;28;20037;-57
2022/08/13 01:18:50;;;;;;;0.98;0.90;;;;;;;;;;10444969;28;20036;-57
2022/08/13 01:23:54;;;;;;;2.65;0.80;;;;;;;;;;10476381;28;20029;-57
2022/08/13 01:28:54;;;;;;;1.67;0.98;;;;;;;;;;10460985;28;20028;-57
2022/08/13 01:33:59;;;;;;;2.78;1.42;;;;;;;;;;10452556;28;20025;-57
2022/08/13 01:39:05;;;;;;;2.05;1.17;;;;;;;;;;10453670;28;20111;-55
2022/08/13 01:44:06;;;;;;;1.58;1.10;;;;;;;;;;10459629;28;20388;-57
2022/08/13 01:54:27;;;;;;;1.10;1.00;;;;;;;;;;10453066;28;20037;-57
2022/08/13 01:59:29;;;;;;;1.40;1.05;;;;;;;;;;10473353;28;20024;-56
2022/08/13 02:04:32;;;;;;;1.85;1.05;;;;;;;;;;10493062;28;20041;-56
2022/08/13 02:09:32;;;;;;;0.90;0.90;;;;;;;;;;10486918;28;20046;-56
2022/08/13 02:14:34;;;;;;;1.20;1.10;;;;;;;;;;10478498;28;20029;-58
2022/08/13 02:19:34;;;;;;;1.95;0.98;;;;;;;;;;10471983;28;20029;-58
2022/08/13 02:24:35;;;;;;;2.58;1.00;;;;;;;;;;10436797;28;20029;-58
2022/08/13 02:29:36;;;;;;;0.82;0.77;;;;;;;;;;10448505;28;20031;-56
2022/08/13 02:34:38;;;;;;;0.80;0.80;;;;;;;;;;10467091;28;20028;-57
2022/08/13 02:39:39;;;;;;;1.88;1.08;;;;;;;;;;10450084;28;20021;-57
2022/08/13 02:44:40;;;;;;;1.33;0.93;;;;;;;;;;10460886;28;20036;-57
2022/08/13 02:49:41;;;;;;;0.80;0.80;;;;;;;;;;10459216;28;20044;-57
2022/08/13 02:54:47;;;;;;;1.65;0.80;;;;;;;;;;10450135;28;20044;-58
2022/08/13 02:59:48;;;;;;;0.98;0.88;;;;;;;;;;10468196;28;20037;-57
2022/08/13 03:04:49;;;;;;;0.95;0.85;;;;;;;;;;10507027;23;20056;-56
2022/08/13 03:09:49;;;;;;;1.88;0.77;;;;;;;;;;10525365;28;20036;-55
2022/08/13 03:14:51;;;;;;;1.75;0.90;;;;;;;;;;10525516;28;20471;-57
2022/08/13 03:19:51;;;;;;;1.10;0.90;;;;;;;;;;10525408;28;20028;-57
2022/08/13 03:24:52;;;;;;;1.20;0.90;;;;;;;;;;10531048;28;20032;-55
2022/08/13 03:29:53;;;;;;;0.80;0.75;;;;;;;;;;10532199;28;20031;-55
2022/08/13 03:34:54;;;;;;;0.90;0.85;;;;;;;;;;10532679;28;20518;-55
2022/08/13 03:39:54;;;;;;;0.98;0.85;;;;;;;;;;10522757;28;20529;-58
2022/08/13 03:44:56;;;;;;;0.70;0.70;;;;;;;;;;10530071;28;20031;-57
2022/08/13 03:49:59;;;;;;;0.77;0.77;;;;;;;;;;10531497;28;20525;-57
2022/08/13 03:55:01;;;;;;;0.77;0.77;;;;;;;;;;10532322;28;20467;-56
2022/08/13 04:00:04;;;;;;;3.63;0.90;;;;;;;;;;10523589;28;20081;-57
2022/08/13 04:05:05;;;;;;;1.08;0.90;;;;;;;;;;10530658;28;20055;-55
2022/08/13 04:10:07;;;;;;;1.20;0.70;;;;;;;;;;10531112;28;20081;-58
2022/08/13 04:15:08;;;;;;;1.38;0.85;;;;;;;;;;10528394;28;20396;-57
2022/08/13 04:20:10;;;;;;;1.00;0.68;;;;;;;;;;10538647;28;20098;-57
2022/08/13 04:25:12;;;;;;;1.92;0.80;;;;;;;;;;10538349;28;20035;-55
2022/08/13 04:30:19;;;;;;;1.63;1.00;;;;;;;;;;10539050;28;20032;-60
2022/08/13 04:35:19;;;;;;;0.60;0.60;;;;;;;;;;10532213;28;20024;-57
2022/08/13 04:40:20;;;;;;;2.05;0.90;;;;;;;;;;10538333;28;20035;-56
2022/08/13 04:45:25;;;;;;;0.85;0.70;;;;;;;;;;10527546;28;20030;-57
2022/08/13 04:50:32;;;;;;;1.55;0.77;;;;;;;;;;10538541;28;20077;-55
2022/08/13 04:55:34;;;;;;;1.42;0.70;;;;;;;;;;10536926;28;20046;-55
2022/08/13 05:00:34;;;;;;;3.53;0.80;;;;;;;;;;10537373;28;20258;-57
2022/08/13 05:05:36;;;;;;;1.50;0.85;;;;;;;;;;10527667;28;20175;-57
2022/08/13 05:10:39;;;;;;;0.60;0.60;;;;;;;;;;10536700;28;20060;-57
2022/08/13 05:15:39;;;;;;;1.00;0.70;;;;;;;;;;10535393;28;20565;-57
2022/08/13 05:20:40;;;;;;;1.75;1.00;;;;;;;;;;10536828;28;20032;-58
2022/08/13 05:25:42;;;;;;;0.68;0.68;;;;;;;;;;10536038;28;20028;-56
2022/08/13 05:30:43;;;;;;;0.70;0.68;;;;;;;;;;10535524;28;20028;-55
2022/08/13 05:35:49;;;;;;;0.88;0.75;;;;;;;;;;10531777;28;20572;-57
2022/08/13 05:40:56;;;;;;;1.35;1.20;;;;;;;;;;10535910;28;20472;-58
2022/08/13 05:46:02;;;;;;;0.90;0.77;;;;;;;;;;10532993;28;20357;-58
2022/08/13 05:51:08;;;;;;;1.05;0.70;;;;;;;;;;10535637;28;20036;-59
2022/08/13 05:56:11;;;;;;;1.48;0.90;;;;;;;;;;10525795;28;20122;-57
2022/08/13 06:06:32;;;;;;;0.95;0.85;;;;;;;;;;10524564;28;20036;-57
2022/08/13 06:11:34;;;;;;;0.70;0.70;;;;;;;;;;10532107;28;20036;-57
2022/08/13 06:16:37;;;;;;;1.20;0.60;;;;;;;;;;10529174;28;20032;-57
2022/08/13 06:21:38;;;;;;;0.70;0.70;;;;;;;;;;10533180;28;20122;-58
2022/08/13 06:26:38;;;;;;;0.80;0.80;;;;;;;;;;10530422;28;20105;-57
2022/08/13 06:31:40;;;;;;;2.15;0.80;;;;;;;;;;10534276;28;20541;-61
2022/08/13 06:36:41;;;;;;;1.25;0.80;;;;;;;;;;10531534;28;20112;-57
2022/08/13 06:41:42;;;;;;;1.05;0.65;;;;;;;;;;10532792;28;20031;-58
2022/08/13 06:46:44;;;;;;;1.08;0.80;;;;;;;;;;10530589;28;20027;-56
2022/08/13 06:51:44;;;;;;;1.00;0.80;;;;;;;;;;10528746;28;20059;-59
2022/08/13 06:56:45;;;;;;;7.30;0.80;;;;;;;;;;10532394;28;20052;-57
2022/08/13 07:01:47;;;;;;;1.60;0.88;;;;;;;;;;10525524;28;20047;-56
2022/08/13 07:06:48;;;;;;;2.00;0.80;;;;;;;;;;10531553;28;20417;-58
2022/08/13 07:11:48;;;;;;;2.22;0.95;;;;;;;;;;10531480;28;20024;-57
2022/08/13 07:16:49;;;;;;;3.78;1.15;;;;;;;;;;10527723;28;20035;-57
2022/08/13 07:21:50;;;;;;;1.15;0.93;;;;;;;;;;10532719;28;20450;-57
2022/08/13 07:26:51;;;;;;;2.95;0.90;;;;;;;;;;10531358;28;20040;-57
2022/08/13 07:31:53;;;;;;;1.58;0.85;;;;;;;;;;10527768;28;20119;-58
2022/08/13 07:36:56;;;;;;;1.80;0.75;;;;;;;;;;10525720;28;20035;-57
2022/08/13 07:41:58;;;;;;;2.08;0.88;;;;;;;;;;10531983;28;20038;-57
2022/08/13 07:46:59;;;;;;;2.45;1.00;;;;;;;;;;10516298;28;20024;-57
2022/08/13 07:52:01;;;;;;;1.90;1.00;;;;;;;;;;10531127;28;20584;-57
2022/08/13 07:57:02;;;;;;;4.43;0.98;;;;;;;;;;10532967;28;20024;-58
2022/08/13 08:02:07;;;;;;;3.90;1.17;;;;;;;;;;10538252;28;20027;-58
2022/08/13 08:07:09;;;;;;;2.40;0.90;;;;;;;;;;10539286;28;20047;-57
2022/08/13 08:17:31;;;;;;;2.95;0.90;;;;;;;;;;10538779;28;20028;-57
2022/08/13 08:22:32;;;;;;;1.58;0.98;;;;;;;;;;10529016;28;20514;-57
2022/08/13 08:27:33;;;;;;;1.48;1.13;;;;;;;;;;10533661;28;20437;-57
2022/08/13 08:32:36;;;;;;;1.08;0.98;;;;;;;;;;10538607;28;20024;-57
2022/08/13 08:43:00;;;;;;;1.17;0.90;;;;;;;;;;10526636;28;20399;-55
2022/08/13 08:48:01;;;;;;;0.88;0.73;;;;;;;;;;10532194;28;20024;-60
2022/08/13 08:53:21;;;;;;;2.08;1.15;;;;;;;;;;10534056;28;20031;-55
2022/08/13 08:58:22;;;;;;;5.18;1.00;;;;;;;;;;10537284;28;20450;-55
2022/08/13 09:03:27;;;;;;;3.15;1.10;;;;;;;;;;10534048;28;20039;-55
2022/08/13 09:08:28;;;;;;;0.90;0.90;;;;;;;;;;10536385;28;20251;-54
2022/08/13 09:13:30;;;;;;;5.05;1.45;;;;;;;;;;10536233;28;20111;-58
2022/08/13 09:18:32;;;;;;;3.60;1.27;;;;;;;;;;10531810;28;20036;-57
2022/08/13 09:23:34;;;;;;;3.38;1.40;;;;;;;;;;10530672;28;20490;-55
2022/08/13 09:28:37;;;;;;;2.25;1.30;;;;;;;;;;10535978;28;20028;-55
2022/08/13 09:33:39;;;;;;;2.90;1.27;;;;;;;;;;10530423;28;20467;-57
2022/08/13 09:38:39;;;;;;;1.98;1.20;;;;;;;;;;10536363;28;20151;-54
2022/08/13 09:43:42;;;;;;;8.23;1.70;;;;;;;;;;10535785;28;20204;-54
2022/08/13 09:48:44;;;;;;;5.47;1.40;;;;;;;;;;10532627;28;20036;-54
2022/08/13 09:53:47;;;;;;;3.47;1.58;;;;;;;;;;10531349;28;20036;-54
2022/08/13 09:58:50;;;;;;;7.30;1.50;;;;;;;;;;10535036;28;20032;-53
2022/08/13 10:03:51;;;;;;;4.38;1.50;;;;;;;;;;10533901;28;20171;-53
2022/08/13 10:08:53;;;;;;;6.32;1.45;;;;;;;;;;10535118;28;20621;-54
2022/08/13 10:13:57;;;;;;;6.03;1.55;;;;;;;;;;10534338;28;20059;-53
2022/08/13 10:18:57;;;;;;;6.20;1.20;;;;;;;;;;10530525;28;20102;-53
2022/08/13 10:23:58;;;;;;;1.13;1.00;;;;;;;;;;10526289;28;20034;-54
2022/08/13 10:28:59;;;;;;;1.83;1.10;;;;;;;;;;10533609;28;20455;-53
2022/08/13 10:34:03;;;;;;;2.88;1.20;;;;;;;;;;10531128;28;20506;-53
2022/08/13 10:39:06;;;;;;;1.67;1.00;;;;;;;;;;10529524;28;20681;-54
2022/08/13 10:44:07;;;;;;;1.90;1.20;;;;;;;;;;10520386;28;20032;-53
2022/08/13 10:49:07;;;;;;;3.17;1.23;;;;;;;;;;10524993;28;20028;-54
2022/08/13 10:54:08;;;;;;;1.08;0.90;;;;;;;;;;10532747;28;20020;-53
2022/08/13 10:59:09;;;;;;;6.35;1.30;;;;;;;;;;10529147;28;20452;-53
2022/08/13 11:04:09;;;;;;;1.20;1.05;;;;;;;;;;10524460;28;20039;-55
2022/08/13 11:09:10;;;;;;;1.20;1.10;;;;;;;;;;10531749;28;20035;-54
2022/08/13 11:14:13;;;;;;;2.90;0.98;;;;;;;;;;10532590;28;20027;-54
2022/08/13 11:19:17;;;;;;;1.92;1.30;;;;;;;;;;10532072;28;20104;-55
2022/08/13 11:24:18;;;;;;;2.55;1.20;;;;;;;;;;10520079;28;20459;-52
2022/08/13 11:29:19;;;;;;;1.20;1.10;;;;;;;;;;10529937;28;20024;-53
2022/08/13 11:34:19;;;;;;;2.40;1.10;;;;;;;;;;10516878;28;20035;-53
2022/08/13 11:39:20;;;;;;;1.45;1.10;;;;;;;;;;10530492;28;20487;-54
2022/08/13 11:44:21;;;;;;;0.95;0.90;;;;;;;;;;10530922;28;20032;-54
2022/08/13 11:49:22;;;;;;;5.03;1.20;;;;;;;;;;10530277;28;20054;-54
2022/08/13 11:54:23;;;;;;;3.00;1.38;;;;;;;;;;10523402;28;20083;-54
2022/08/13 11:59:24;;;;;;;2.55;1.02;;;;;;;;;;10530703;28;20071;-55
2022/08/13 12:04:25;;;;;;;1.35;1.10;;;;;;;;;;10530490;28;20044;-54
2022/08/13 12:09:26;;;;;;;3.42;1.20;;;;;;;;;;10529598;28;20556;-54
2022/08/13 12:14:26;;;;;;;3.08;0.98;;;;;;;;;;10526798;28;20147;-54
2022/08/13 12:19:27;;;;;;;1.35;1.00;;;;;;;;;;10518338;28;20024;-52
2022/08/13 12:24:28;;;;;;;4.22;1.20;;;;;;;;;;10531228;28;20035;-54
2022/08/13 12:29:29;;;;;;;2.65;1.27;;;;;;;;;;10530809;28;20112;-53
2022/08/13 12:34:30;;;;;;;3.40;1.65;;;;;;;;;;10524795;28;20055;-54
2022/08/13 12:39:30;;;;;;;3.28;0.98;;;;;;;;;;10536622;28;20024;-54
2022/08/13 12:44:31;;;;;;;5.00;1.27;;;;;;;;;;10537010;28;20036;-54
2022/08/13 12:49:32;;;;;;;1.45;0.98;;;;;;;;;;10536783;28;20062;-54
2022/08/13 12:54:32;;;;;;;2.10;1.33;;;;;;;;;;10532347;28;20036;-55
2022/08/13 12:59:33;;;;;;;1.35;1.05;;;;;;;;;;10533863;28;20495;-54
2022/08/13 13:04:35;;;;;;;3.28;1.10;;;;;;;;;;10536920;28;20043;-54
2022/08/13 13:09:35;;;;;;;1.85;1.20;;;;;;;;;;10534268;28;20036;-54
2022/08/13 13:14:36;;;;;;;2.08;1.20;;;;;;;;;;10533761;28;20119;-53
2022/08/13 13:19:37;;;;;;;5.18;1.35;;;;;;;;;;10534791;28;20062;-53
2022/08/13 13:24:38;;;;;;;9.65;1.50;;;;;;;;;;10535297;28;20023;-52
2022/08/13 13:29:38;;;;;;;5.43;1.30;;;;;;;;;;10532836;28;20028;-55
2022/08/13 13:34:43;;;;;;;9.00;1.42;;;;;;;;;;10527738;28;20025;-55
2022/08/13 13:39:45;;;;;;;8.95;1.50;;;;;;;;;;10533400;28;20043;-54
2022/08/13 13:44:45;;;;;;;3.75;1.40;;;;;;;;;;10528876;28;20551;-55
2022/08/13 13:49:46;;;;;;;5.18;1.70;;;;;;;;;;10528674;28;20270;-55
2022/08/13 13:54:49;;;;;;;2.63;1.35;;;;;;;;;;10518001;28;20094;-54
2022/08/13 13:59:50;;;;;;;7.65;1.60;;;;;;;;;;10527968;28;20032;-55
2022/08/13 14:04:50;;;;;;;4.70;1.60;;;;;;;;;;10528181;28;20101;-53
2022/08/13 14:09:53;;;;;;;2.78;1.30;;;;;;;;;;10518767;28;20384;-53
2022/08/13 14:14:53;;;;;;;2.53;1.70;;;;;;;;;;10518822;28;20028;-53
2022/08/13 14:19:54;;;;;;;1.95;1.27;;;;;;;;;;10526226;28;20020;-58
2022/08/13 14:24:57;;;;;;;6.25;1.50;;;;;;;;;;10523569;28;20035;-53
2022/08/13 14:29:58;;;;;;;4.28;1.25;;;;;;;;;;10521476;28;20061;-52
2022/08/13 14:35:09;;;;;;;5.18;1.30;;;;;;;;;;10529633;28;20028;-49
2022/08/13 14:40:17;;;;;;;11.55;1.77;;;;;;;;;;10523028;28;20023;-57
2022/08/13 14:50:44;;;;;;;5.72;1.73;;;;;;;;;;10518098;28;19919;-55
2022/08/13 14:55:47;;;;;;;5.32;1.85;;;;;;;;;;10525100;28;20035;-53
2022/08/13 15:00:51;;;;;;;7.68;1.77;;;;;;;;;;10522854;28;20032;-51
2022/08/13 15:05:56;;;;;;;3.70;1.40;;;;;;;;;;10523928;28;20055;-50
2022/08/13 15:11:01;;;;;;;1.90;1.30;;;;;;;;;;10530624;28;20032;-56
2022/08/13 15:16:07;;;;;;;7.63;1.70;;;;;;;;;;10529206;28;20103;-52
2022/08/13 15:21:08;;;;;;;3.20;1.30;;;;;;;;;;10529065;28;20055;-52
2022/08/13 15:26:10;;;;;;;8.05;2.20;;;;;;;;;;10516818;28;20017;-57
2022/08/13 15:31:11;;;;;;;6.78;1.60;;;;;;;;;;10517880;28;20534;-60
2022/08/13 15:36:14;;;;;;;4.55;1.40;;;;;;;;;;10529644;28;20024;-61
2022/08/13 15:41:15;;;;;;;3.42;1.60;;;;;;;;;;10520673;28;20028;-61
2022/08/13 15:46:16;;;;;;;1.35;1.23;;;;;;;;;;10528577;28;20020;-61
2022/08/13 15:51:16;;;;;;;4.72;1.50;;;;;;;;;;10527900;28;20054;-49
2022/08/13 15:56:17;;;;;;;2.63;1.20;;;;;;;;;;10518073;28;20028;-52
2022/08/13 16:01:20;;;;;;;1.67;1.40;;;;;;;;;;10529219;28;20441;-50
2022/08/13 16:06:26;;;;;;;4.28;1.20;;;;;;;;;;10530196;28;20118;-55
2022/08/13 16:11:27;;;;;;;3.90;1.40;;;;;;;;;;10530942;28;20050;-55
2022/08/13 16:16:28;;;;;;;2.72;1.10;;;;;;;;;;10538390;28;20032;-55
2022/08/13 16:21:43;;;;;;;1.42;1.20;;;;;;;;;;10534367;28;20119;-52
2022/08/13 16:26:47;;;;;;;3.97;1.38;;;;;;;;;;10535053;28;20062;-56
2022/08/13 16:31:48;;;;;;;2.25;1.58;;;;;;;;;;10536905;28;20028;-55
2022/08/13 16:36:51;;;;;;;3.60;1.00;;;;;;;;;;10533035;28;20524;-55
2022/08/13 16:41:53;;;;;;;3.45;1.35;;;;;;;;;;10532332;28;20024;-53
2022/08/13 16:46:54;;;;;;;2.30;1.30;;;;;;;;;;10524836;28;20020;-52
2022/08/13 16:51:55;;;;;;;1.70;1.10;;;;;;;;;;10533742;28;20047;-53
2022/08/13 16:56:56;;;;;;;2.33;1.05;;;;;;;;;;10534151;28;20016;-54
2022/08/13 17:01:58;;;;;;;2.05;1.30;;;;;;;;;;10536905;28;20032;-55
2022/08/13 17:12:19;;;;;;;1.70;1.40;;;;;;;;;;10536201;28;20024;-54
2022/08/13 17:17:20;;;;;;;2.70;1.10;;;;;;;;;;10535357;28;20391;-52
2022/08/13 17:22:21;;;;;;;1.30;1.20;;;;;;;;;;10523058;28;20553;-57
2022/08/13 17:27:23;;;;;;;7.20;1.20;;;;;;;;;;10533423;28;20104;-49
2022/08/13 17:32:23;;;;;;;1.20;1.10;;;;;;;;;;10534962;28;20024;-53
2022/08/13 17:37:26;;;;;;;2.80;1.40;;;;;;;;;;10535676;28;20015;-48
2022/08/13 17:42:26;;;;;;;2.22;1.30;;;;;;;;;;10531117;28;20050;-56
2022/08/13 17:47:27;;;;;;;1.50;1.20;;;;;;;;;;10532963;28;20028;-56
2022/08/13 17:52:28;;;;;;;2.78;1.15;;;;;;;;;;10533587;28;20035;-54
2022/08/13 17:57:28;;;;;;;2.85;1.38;;;;;;;;;;10530471;28;20035;-53
2022/08/13 18:02:29;;;;;;;3.88;1.27;;;;;;;;;;10529887;28;20262;-55
2022/08/13 18:07:30;;;;;;;4.40;1.50;;;;;;;;;;10521164;28;20044;-52
2022/08/13 18:12:30;;;;;;;3.00;1.23;;;;;;;;;;10526665;28;20032;-53
2022/08/13 18:17:31;;;;;;;3.80;1.15;;;;;;;;;;10519613;28;20027;-53
2022/08/13 18:22:33;;;;;;;1.25;1.13;;;;;;;;;;10529124;28;20032;-52
2022/08/13 18:27:35;;;;;;;5.57;1.50;;;;;;;;;;10530480;28;20042;-51
2022/08/13 18:32:35;;;;;;;4.03;1.40;;;;;;;;;;10532487;28;20043;-51
2022/08/13 18:37:37;;;;;;;2.08;1.20;;;;;;;;;;10528784;28;20380;-53
2022/08/13 18:42:38;;;;;;;2.85;1.40;;;;;;;;;;10524864;28;20559;-51
2022/08/13 18:47:40;;;;;;;10.02;1.90;;;;;;;;;;10529418;28;20043;-52
2022/08/13 18:52:41;;;;;;;5.25;1.42;;;;;;;;;;10532187;28;20488;-53
2022/08/13 18:57:42;;;;;;;3.17;1.58;;;;;;;;;;10532628;28;20036;-53
2022/08/13 19:02:44;;;;;;;5.63;1.40;;;;;;;;;;10531000;28;20440;-53
2022/08/13 19:07:46;;;;;;;2.35;1.50;;;;;;;;;;10527667;28;20115;-51
2022/08/13 19:12:50;;;;;;;2.03;1.23;;;;;;;;;;10526465;28;20077;-56
2022/08/13 19:17:54;;;;;;;5.10;1.13;;;;;;;;;;10524840;28;20085;-53
2022/08/13 19:23:02;;;;;;;4.43;1.33;;;;;;;;;;10526421;28;20039;-52
2022/08/13 19:28:03;;;;;;;5.78;1.45;;;;;;;;;;10513001;28;20027;-54
2022/08/13 19:33:04;;;;;;;2.30;1.23;;;;;;;;;;10528240;28;20077;-54
2022/08/13 19:38:06;;;;;;;1.40;1.23;;;;;;;;;;10532189;28;20028;-53
2022/08/13 19:43:08;;;;;;;2.00;1.40;;;;;;;;;;10531419;28;20106;-55
2022/08/13 19:48:08;;;;;;;3.67;1.60;;;;;;;;;;10524252;28;20495;-55
2022/08/13 19:53:09;;;;;;;4.35;2.08;;;;;;;;;;10534941;28;20106;-55
2022/08/13 19:58:10;;;;;;;5.35;1.90;;;;;;;;;;10525309;28;20028;-57
2022/08/13 20:03:20;;;;;;;4.07;2.10;;;;;;;;;;10524779;28;20036;-54
2022/08/13 20:08:22;;;;;;;4.72;2.00;;;;;;;;;;10525931;28;20048;-60
2022/08/13 20:13:22;;;;;;;6.30;1.88;;;;;;;;;;10511956;28;20020;-54
2022/08/13 20:18:23;;;;;;;4.43;2.10;;;;;;;;;;10523137;28;20028;-55
2022/08/13 20:23:24;;;;;;;2.80;1.50;;;;;;;;;;10525443;28;20025;-60
2022/08/13 20:28:25;;;;;;;7.05;1.88;;;;;;;;;;10528934;28;20032;-54
2022/08/13 20:33:31;;;;;;;5.00;1.65;;;;;;;;;;10537348;28;20247;-56
2022/08/13 20:38:36;;;;;;;7.25;1.67;;;;;;;;;;10538836;28;20030;-55
2022/08/13 20:43:36;;;;;;;4.65;1.67;;;;;;;;;;10537949;28;20091;-57
2022/08/13 20:48:37;;;;;;;3.00;1.60;;;;;;;;;;10535484;28;20496;-55
2022/08/13 20:53:38;;;;;;;3.30;1.75;;;;;;;;;;10537899;28;20384;-55
2022/08/13 20:58:38;;;;;;;6.25;1.70;;;;;;;;;;10535092;28;20064;-56
2022/08/13 21:03:39;;;;;;;2.45;1.70;;;;;;;;;;10537242;28;20438;-55
2022/08/13 21:08:40;;;;;;;2.30;1.55;;;;;;;;;;10537585;28;20024;-54
2022/08/13 21:13:41;;;;;;;3.08;1.80;;;;;;;;;;10535219;28;20031;-55
2022/08/13 21:18:42;;;;;;;2.10;1.83;;;;;;;;;;10536865;28;20032;-54
2022/08/13 21:23:43;;;;;;;7.25;1.55;;;;;;;;;;10535815;28;20043;-56
2022/08/13 21:28:43;;;;;;;2.17;1.63;;;;;;;;;;10536185;28;20123;-56
2022/08/13 21:33:44;;;;;;;2.72;1.63;;;;;;;;;;10514849;28;20486;-55
2022/08/13 21:38:44;;;;;;;3.25;1.77;;;;;;;;;;10526929;28;20024;-55
2022/08/13 21:43:45;;;;;;;8.27;1.98;;;;;;;;;;10531091;28;20094;-54
2022/08/13 21:48:46;;;;;;;3.63;2.17;;;;;;;;;;10535682;28;20372;-54
2022/08/13 21:53:47;;;;;;;6.72;2.47;;;;;;;;;;10531765;28;20025;-54
2022/08/13 21:58:48;;;;;;;2.78;2.10;;;;;;;;;;10533780;28;20484;-54
2022/08/13 22:03:49;;;;;;;4.88;2.53;;;;;;;;;;10519225;28;20040;-55
2022/08/13 22:08:51;;;;;;;4.40;2.88;;;;;;;;;;10532954;28;20080;-58
2022/08/13 22:13:52;;;;;;;6.28;3.47;;;;;;;;;;10528728;28;20073;-54
2022/08/13 22:18:53;;;;;;;6.82;2.70;;;;;;;;;;10529169;28;20032;-53
2022/08/13 22:23:53;;;;;;;8.98;2.83;;;;;;;;;;10527002;28;20345;-57
2022/08/13 22:34:14;;;;;;;6.45;2.20;;;;;;;;;;10522689;28;20036;-55
2022/08/13 22:39:14;;;;;;;6.55;2.03;;;;;;;;;;10528780;28;20138;-51
2022/08/13 22:44:15;;;;;;;3.53;2.05;;;;;;;;;;10523479;28;20127;-58
2022/08/13 22:49:16;;;;;;;4.10;1.90;;;;;;;;;;10517539;28;20035;-52
2022/08/13 22:54:17;;;;;;;3.33;2.10;;;;;;;;;;10520623;28;20055;-48
2022/08/13 22:59:18;;;;;;;3.40;1.70;;;;;;;;;;10522927;28;20048;-56
2022/08/13 23:04:20;;;;;;;3.22;1.95;;;;;;;;;;10525634;28;20132;-52
2022/08/13 23:09:22;;;;;;;3.58;1.77;;;;;;;;;;10525418;28;20468;-52
2022/08/13 23:14:22;;;;;;;3.00;1.90;;;;;;;;;;10510005;28;20027;-51
2022/08/13 23:19:23;;;;;;;2.70;1.80;;;;;;;;;;10516720;28;20032;-51
2022/08/13 23:24:23;;;;;;;4.50;1.70;;;;;;;;;;10508979;28;20115;-49
2022/08/13 23:29:24;;;;;;;2.75;1.65;;;;;;;;;;10515680;28;20728;-48
2022/08/13 23:34:26;;;;;;;4.57;1.50;;;;;;;;;;10509602;28;20039;-51
2022/08/13 23:39:27;;;;;;;2.55;1.70;;;;;;;;;;10510990;28;20133;-51
2022/08/13 23:44:28;;;;;;;2.55;1.67;;;;;;;;;;10523087;28;20032;-52
2022/08/13 23:49:28;;;;;;;3.50;1.70;;;;;;;;;;10522294;28;20119;-48
2022/08/13 23:54:29;;;;;;;1.70;1.60;;;;;;;;;;10531065;28;20024;-51
2022/08/13 23:59:30;;;;;;;2.55;1.65;;;;;;;;;;10526382;28;20028;-51
